createdAt,value
2018-11-27T00:01:16.445Z,69.87
2018-11-27T00:03:52.030Z,69.22
2018-11-27T00:06:22.542Z,70.38
2018-11-27T00:08:51.642Z,70.71
2018-11-27T00:11:21.113Z,70.18
2018-11-27T00:13:50.065Z,70.29
2018-11-27T00:16:21.322Z,70.51
2018-11-27T00:18:50.262Z,71.27
2018-11-27T00:21:19.030Z,71.76
2018-11-27T00:23:49.453Z,71.64
2018-11-27T00:26:19.722Z,72.80
2018-11-27T00:28:49.202Z,71.77
2018-11-27T00:31:19.212Z,71.77
2018-11-27T00:33:48.545Z,72.49
2018-11-27T00:36:19.722Z,72.11
2018-11-27T00:38:48.415Z,73.36
2018-11-27T00:41:18.831Z,72.76
2018-11-27T00:43:47.062Z,71.84
2018-11-27T00:46:16.186Z,71.52
2018-11-27T00:48:46.084Z,71.49
2018-11-27T00:51:17.641Z,72.03
2018-11-27T00:53:46.343Z,71.12
2018-11-27T00:56:15.775Z,71.74
2018-11-27T00:58:45.815Z,71.42
2018-11-27T01:01:15.326Z,71.72
2018-11-27T01:03:48.211Z,71.65
2018-11-27T01:06:16.726Z,71.87
2018-11-27T01:08:45.710Z,72.58
2018-11-27T01:11:14.773Z,73.41
2018-11-27T01:13:46.032Z,72.29
2018-11-27T01:16:16.221Z,72.90
2018-11-27T01:18:45.542Z,73.76
2018-11-27T01:21:16.739Z,73.86
2018-11-27T01:23:47.135Z,71.84
2018-11-27T01:26:16.447Z,72.13
2018-11-27T01:28:45.573Z,72.36
2018-11-27T01:31:15.086Z,70.89
2018-11-27T01:33:45.398Z,72.52
2018-11-27T01:36:14.015Z,69.60
2018-11-27T01:38:42.845Z,69.82
2018-11-27T01:41:12.087Z,70.62
2018-11-27T01:43:43.366Z,70.33
2018-11-27T01:46:14.590Z,70.00
2018-11-27T01:48:45.706Z,69.84
2018-11-27T01:51:16.097Z,70.15
2018-11-27T01:53:44.648Z,69.33
2018-11-27T01:56:13.410Z,70.16
2018-11-27T01:58:41.982Z,70.12
2018-11-27T02:01:11.347Z,70.37
2018-11-27T02:03:40.394Z,70.75
2018-11-27T02:06:09.146Z,71.29
2018-11-27T02:08:37.966Z,70.81
2018-11-27T02:11:06.554Z,70.75
2018-11-27T02:13:36.275Z,70.89
2018-11-27T02:16:06.254Z,71.33
2018-11-27T02:18:35.421Z,71.40
2018-11-27T02:21:05.796Z,71.76
2018-11-27T02:23:37.105Z,71.21
2018-11-27T02:26:07.438Z,74.47
2018-11-27T02:28:38.269Z,73.18
2018-11-27T02:31:06.830Z,71.93
2018-11-27T02:33:37.641Z,70.73
2018-11-27T02:36:08.258Z,71.76
2018-11-27T02:38:38.404Z,72.80
2018-11-27T02:41:08.006Z,71.51
2018-11-27T02:43:36.962Z,71.96
2018-11-27T02:46:06.982Z,71.65
2018-11-27T02:48:37.175Z,73.33
2018-11-27T02:51:08.000Z,73.78
2018-11-27T02:53:38.035Z,73.25
2018-11-27T02:56:08.332Z,74.27
2018-11-27T02:58:39.100Z,73.87
2018-11-27T03:01:08.655Z,74.22
2018-11-27T03:03:37.467Z,73.87
2018-11-27T03:06:08.530Z,73.61
2018-11-27T03:08:37.431Z,74.45
2018-11-27T03:11:07.366Z,74.21
2018-11-27T03:13:37.147Z,75.07
2018-11-27T03:16:07.245Z,74.64
2018-11-27T03:18:37.283Z,74.80
2018-11-27T03:21:07.847Z,73.89
2018-11-27T03:23:37.891Z,73.85
2018-11-27T03:26:08.779Z,73.61
2018-11-27T03:28:38.217Z,73.67
2018-11-27T03:31:07.544Z,73.38
2018-11-27T03:33:36.582Z,72.67
2018-11-27T03:36:05.181Z,73.55
2018-11-27T03:38:35.386Z,72.15
2018-11-27T03:41:05.313Z,72.61
2018-11-27T03:43:36.317Z,72.99
2018-11-27T03:46:07.090Z,73.33
2018-11-27T03:48:37.207Z,72.52
2018-11-27T03:51:09.705Z,72.97
2018-11-27T03:53:40.591Z,72.90
2018-11-27T03:56:09.306Z,72.91
2018-11-27T03:58:41.499Z,73.66
2018-11-27T04:01:10.975Z,73.22
2018-11-27T04:03:40.419Z,72.38
2018-11-27T04:06:10.786Z,72.07
2018-11-27T04:08:40.333Z,73.05
2018-11-27T04:11:10.098Z,72.75
2018-11-27T04:13:38.595Z,71.11
2018-11-27T04:16:09.330Z,71.57
2018-11-27T04:18:39.351Z,71.74
2018-11-27T04:21:08.781Z,71.56
2018-11-27T04:23:38.351Z,72.13
2018-11-27T04:26:07.818Z,71.33
2018-11-27T04:28:37.938Z,69.38
2018-11-27T04:31:06.998Z,71.94
2018-11-27T04:33:36.610Z,70.35
2018-11-27T04:36:06.746Z,70.32
2018-11-27T04:38:36.150Z,69.60
2018-11-27T04:41:06.222Z,73.26
2018-11-27T04:43:35.945Z,72.92
2018-11-27T04:46:05.289Z,72.00
2018-11-27T04:48:34.569Z,72.34
2018-11-27T04:51:03.626Z,73.30
2018-11-27T04:53:35.118Z,72.24
2018-11-27T04:56:05.029Z,70.53
2018-11-27T04:58:33.981Z,71.42
2018-11-27T05:01:03.928Z,68.47
2018-11-27T05:03:33.737Z,68.82
2018-11-27T05:06:02.493Z,68.61
2018-11-27T05:08:32.406Z,68.81
2018-11-27T05:11:01.643Z,68.25
2018-11-27T05:13:30.593Z,68.40
2018-11-27T05:15:59.785Z,66.69
2018-11-27T05:18:28.967Z,69.05
2018-11-27T05:20:58.503Z,68.46
2018-11-27T05:23:27.542Z,67.03
2018-11-27T05:25:56.372Z,67.94
2018-11-27T05:28:26.942Z,68.03
2018-11-27T05:30:56.074Z,69.44
2018-11-27T05:33:26.549Z,69.40
2018-11-27T05:35:56.542Z,67.98
2018-11-27T05:38:25.121Z,68.09
2018-11-27T05:40:53.638Z,69.04
2018-11-27T05:43:23.387Z,69.92
2018-11-27T05:45:53.457Z,67.98
2018-11-27T05:48:24.055Z,67.73
2018-11-27T05:50:53.533Z,67.86
2018-11-27T05:53:22.661Z,67.57
2018-11-27T05:55:53.761Z,68.19
2018-11-27T05:58:23.747Z,67.79
2018-11-27T06:00:54.905Z,67.74
2018-11-27T06:03:24.653Z,67.45
2018-11-27T06:05:53.857Z,67.66
2018-11-27T06:08:22.964Z,67.83
2018-11-27T06:10:52.678Z,68.83
2018-11-27T06:13:22.049Z,67.34
2018-11-27T06:15:53.124Z,69.16
2018-11-27T06:18:23.543Z,68.92
2018-11-27T06:20:54.098Z,67.37
2018-11-27T06:23:24.189Z,68.28
2018-11-27T06:25:58.182Z,68.02
2018-11-27T06:28:28.181Z,66.48
2018-11-27T06:30:57.545Z,67.32
2018-11-27T06:33:27.578Z,67.70
2018-11-27T06:35:59.935Z,67.85
2018-11-27T06:38:29.299Z,68.98
2018-11-27T06:40:58.087Z,67.83
2018-11-27T06:43:28.629Z,68.78
2018-11-27T06:45:58.212Z,67.74
2018-11-27T06:48:26.989Z,68.65
2018-11-27T06:50:57.023Z,68.75
2018-11-27T06:53:26.351Z,69.31
2018-11-27T06:55:57.106Z,69.28
2018-11-27T06:58:27.081Z,70.16
2018-11-27T07:00:56.157Z,69.69
2018-11-27T07:03:25.310Z,69.17
2018-11-27T07:05:55.774Z,69.52
2018-11-27T07:08:39.818Z,68.88
2018-11-27T07:11:09.133Z,69.06
2018-11-27T07:13:39.499Z,70.40
2018-11-27T07:16:08.365Z,69.08
2018-11-27T07:18:37.910Z,68.33
2018-11-27T07:21:08.001Z,69.77
2018-11-27T07:23:37.351Z,68.64
2018-11-27T07:26:07.267Z,70.22
2018-11-27T07:28:35.772Z,69.05
2018-11-27T07:31:05.337Z,68.76
2018-11-27T07:33:35.864Z,69.43
2018-11-27T07:36:08.258Z,67.74
2018-11-27T07:38:39.203Z,66.75
2018-11-27T07:41:09.186Z,68.75
2018-11-27T07:43:38.059Z,67.31
2018-11-27T07:46:07.691Z,67.35
2018-11-27T07:48:36.726Z,66.56
2018-11-27T07:51:06.423Z,66.51
2018-11-27T07:53:35.483Z,65.97
2018-11-27T07:56:05.008Z,66.10
2018-11-27T07:58:35.594Z,65.36
2018-11-27T08:01:05.734Z,66.19
2018-11-27T08:03:34.770Z,66.20
2018-11-27T08:06:04.118Z,66.09
2018-11-27T08:08:33.213Z,67.26
2018-11-27T08:11:02.537Z,65.99
2018-11-27T08:13:33.216Z,67.03
2018-11-27T08:16:03.024Z,68.52
2018-11-27T08:18:32.333Z,66.88
2018-11-27T08:21:01.007Z,67.41
2018-11-27T08:23:34.193Z,67.04
2018-11-27T08:26:03.715Z,68.60
2018-11-27T08:28:34.146Z,67.58
2018-11-27T08:31:09.225Z,67.90
2018-11-27T08:33:38.361Z,67.70
2018-11-27T08:36:08.648Z,68.15
2018-11-27T08:38:38.593Z,69.28
2018-11-27T08:41:24.499Z,69.15
2018-11-27T08:44:56.623Z,69.47
2018-11-27T08:47:26.737Z,67.70
2018-11-27T08:50:00.308Z,68.46
2018-11-27T08:52:29.265Z,68.43
2018-11-27T08:54:58.055Z,69.16
2018-11-27T08:57:28.142Z,70.62
2018-11-27T08:59:57.137Z,68.35
2018-11-27T09:02:29.249Z,68.63
2018-11-27T09:04:59.233Z,68.31
2018-11-27T09:07:28.335Z,69.65
2018-11-27T09:10:01.647Z,69.69
2018-11-27T09:12:31.844Z,70.14
2018-11-27T09:15:03.335Z,70.17
2018-11-27T09:17:33.509Z,69.57
2018-11-27T09:20:04.483Z,69.94
2018-11-27T09:22:34.057Z,69.93
2018-11-27T09:25:04.065Z,70.20
2018-11-27T09:27:33.826Z,69.25
2018-11-27T09:30:02.829Z,69.65
2018-11-27T09:32:34.280Z,70.36
2018-11-27T09:35:03.034Z,69.91
2018-11-27T09:37:32.630Z,70.14
2018-11-27T09:40:03.130Z,69.19
2018-11-27T09:42:33.506Z,69.48
2018-11-27T09:45:04.166Z,67.68
2018-11-27T09:47:35.310Z,67.09
2018-11-27T09:50:06.145Z,67.41
2018-11-27T09:52:39.599Z,66.88
2018-11-27T09:55:15.046Z,67.76
2018-11-27T09:57:44.598Z,68.19
2018-11-27T10:00:24.734Z,68.95
2018-11-27T10:02:55.037Z,67.11
2018-11-27T10:05:24.326Z,66.46
2018-11-27T10:07:52.825Z,67.02
2018-11-27T10:10:25.301Z,67.92
2018-11-27T10:12:54.228Z,68.07
2018-11-27T10:15:26.852Z,67.71
2018-11-27T10:17:57.954Z,68.31
2018-11-27T10:20:28.833Z,68.96
2018-11-27T10:23:10.392Z,68.80
2018-11-27T10:25:40.448Z,67.53
2018-11-27T10:28:12.108Z,67.64
2018-11-27T10:30:49.022Z,67.50
2018-11-27T10:33:18.821Z,67.81
2018-11-27T10:35:52.262Z,67.13
2018-11-27T10:38:23.868Z,66.42
2018-11-27T10:40:54.363Z,69.25
2018-11-27T10:43:28.662Z,67.27
2018-11-27T10:45:57.947Z,67.20
2018-11-27T10:48:26.824Z,67.37
2018-11-27T10:50:56.126Z,68.22
2018-11-27T10:53:24.936Z,67.82
2018-11-27T10:55:54.834Z,66.26
2018-11-27T10:58:37.678Z,65.10
2018-11-27T11:03:20.871Z,65.74
2018-11-27T11:05:50.114Z,64.93
2018-11-27T11:08:19.201Z,66.47
2018-11-27T11:10:47.929Z,67.29
2018-11-27T11:13:17.447Z,66.39
2018-11-27T11:15:47.431Z,66.67
2018-11-27T11:18:17.596Z,64.92
2018-11-27T11:20:47.964Z,66.95
2018-11-27T11:23:19.017Z,65.03
2018-11-27T11:25:49.458Z,66.00
2018-11-27T11:28:22.415Z,64.06
2018-11-27T11:30:51.202Z,66.31
2018-11-27T11:33:20.647Z,67.09
2018-11-27T11:35:51.715Z,66.32
2018-11-27T11:38:26.555Z,64.46
2018-11-27T11:40:55.979Z,63.56
2018-11-27T11:43:24.844Z,64.09
2018-11-27T11:45:54.522Z,65.08
2018-11-27T11:48:23.290Z,66.42
2018-11-27T11:50:52.078Z,67.77
2018-11-27T11:53:22.474Z,67.24
2018-11-27T11:59:02.293Z,69.82
2018-11-27T12:01:32.855Z,68.03
2018-11-27T12:04:03.008Z,69.18
2018-11-27T12:06:36.550Z,69.81
2018-11-27T12:09:08.498Z,65.62
2018-11-27T12:11:38.577Z,66.16
2018-11-27T12:14:09.293Z,65.43
2018-11-27T12:16:39.731Z,65.48
2018-11-27T12:19:10.342Z,66.26
2018-11-27T12:21:40.877Z,65.55
2018-11-27T12:24:11.119Z,65.02
2018-11-27T12:26:40.655Z,65.46
2018-11-27T12:29:11.147Z,66.10
2018-11-27T12:31:43.168Z,65.30
2018-11-27T12:34:13.933Z,65.85
2018-11-27T12:36:43.195Z,66.52
2018-11-27T12:39:12.541Z,66.89
2018-11-27T12:41:43.118Z,66.45
2018-11-27T12:44:11.934Z,66.68
2018-11-27T12:46:43.064Z,65.57
2018-11-27T12:49:12.736Z,67.19
2018-11-27T12:51:45.290Z,67.42
2018-11-27T12:54:15.931Z,67.06
2018-11-27T12:56:45.703Z,66.13
2018-11-27T12:59:15.923Z,67.16
2018-11-27T13:01:50.572Z,66.05
2018-11-27T13:09:14.545Z,63.76
2018-11-27T13:11:44.103Z,64.70
2018-11-27T13:14:12.904Z,65.96
2018-11-27T13:16:44.204Z,66.02
2018-11-27T13:19:14.396Z,66.48
2018-11-27T13:21:45.483Z,66.94
2018-11-27T13:24:15.338Z,66.79
2018-11-27T13:26:45.385Z,66.49
2018-11-27T13:29:15.731Z,66.84
2018-11-27T13:32:48.789Z,65.84
2018-11-27T13:35:18.175Z,65.66
2018-11-27T13:37:47.247Z,65.85
2018-11-27T13:40:16.366Z,67.59
2018-11-27T13:42:45.987Z,68.22
2018-11-27T13:45:15.872Z,68.28
2018-11-27T13:47:47.047Z,67.38
2018-11-27T13:50:17.865Z,67.50
2018-11-27T13:52:47.486Z,68.57
2018-11-27T13:55:23.190Z,69.09
2018-11-27T13:57:52.670Z,68.79
2018-11-27T14:00:22.113Z,67.75
2018-11-27T14:02:57.011Z,67.21
2018-11-27T14:05:27.964Z,68.62
2018-11-27T14:07:56.554Z,68.29
2018-11-27T14:10:25.121Z,67.56
2018-11-27T14:12:54.805Z,68.38
2018-11-27T14:15:25.765Z,68.46
2018-11-27T14:17:59.155Z,68.93
2018-11-27T14:20:29.832Z,67.91
2018-11-27T14:22:59.992Z,67.66
2018-11-27T14:25:29.382Z,67.32
2018-11-27T14:27:58.905Z,67.41
2018-11-27T14:30:28.486Z,67.46
2018-11-27T14:32:58.971Z,67.06
2018-11-27T14:35:28.604Z,67.55
2018-11-27T14:37:57.246Z,66.17
2018-11-27T14:40:28.810Z,65.29
2018-11-27T14:42:58.462Z,64.97
2018-11-27T14:45:28.792Z,64.75
2018-11-27T14:48:00.183Z,63.32
2018-11-27T14:50:30.009Z,65.02
2018-11-27T14:53:00.873Z,65.20
2018-11-27T14:55:31.709Z,65.47
2018-11-27T14:58:02.242Z,65.18
2018-11-27T15:00:31.878Z,64.22
2018-11-27T15:03:00.739Z,63.31
2018-11-27T15:05:35.893Z,64.56
2018-11-27T15:08:06.483Z,64.20
2018-11-27T15:10:36.118Z,63.71
2018-11-27T15:13:05.621Z,64.35
2018-11-27T15:15:35.672Z,60.58
2018-11-27T15:18:04.317Z,63.36
2018-11-27T15:20:35.648Z,63.49
2018-11-27T15:23:06.314Z,64.10
2018-11-27T15:25:36.018Z,62.70
2018-11-27T15:28:06.293Z,62.26
2018-11-27T15:30:37.359Z,64.82
2018-11-27T15:33:07.977Z,64.96
2018-11-27T15:35:38.187Z,65.32
2018-11-27T15:38:08.851Z,63.66
2018-11-27T15:40:39.552Z,64.01
2018-11-27T15:43:08.891Z,62.95
2018-11-27T15:45:37.988Z,62.37
2018-11-27T15:48:08.477Z,63.22
2018-11-27T15:50:37.139Z,62.39
2018-11-27T15:53:08.715Z,61.86
2018-11-27T15:55:39.510Z,62.74
2018-11-27T15:58:13.628Z,65.12
2018-11-27T16:00:44.735Z,67.37
2018-11-27T16:03:14.398Z,67.65
2018-11-27T16:05:44.868Z,66.45
2018-11-27T16:08:14.430Z,67.54
2018-11-27T16:10:44.024Z,67.84
2018-11-27T16:13:14.502Z,68.42
2018-11-27T16:15:45.775Z,68.54
2018-11-27T16:18:15.237Z,67.05
2018-11-27T16:20:45.206Z,66.52
2018-11-27T16:25:41.755Z,66.35
2018-11-27T16:28:11.374Z,66.61
2018-11-27T16:30:40.937Z,66.43
2018-11-27T16:33:10.040Z,66.03
2018-11-27T16:35:39.120Z,66.60
2018-11-27T16:38:12.689Z,66.44
2018-11-27T16:40:44.287Z,66.85
2018-11-27T16:43:14.153Z,68.88
2018-11-27T16:45:43.938Z,69.43
2018-11-27T16:48:12.833Z,69.75
2018-11-27T16:50:41.434Z,69.52
2018-11-27T16:53:10.474Z,68.41
2018-11-27T16:55:40.144Z,68.11
2018-11-27T16:58:11.545Z,67.07
2018-11-27T17:00:40.211Z,66.02
2018-11-27T17:03:09.858Z,66.57
2018-11-27T17:05:46.689Z,66.79
2018-11-27T17:08:18.258Z,65.57
2018-11-27T17:10:47.802Z,64.62
2018-11-27T17:13:17.499Z,64.98
2018-11-27T17:15:47.167Z,64.98
2018-11-27T17:18:18.110Z,65.62
2018-11-27T17:20:47.530Z,66.79
2018-11-27T17:23:19.194Z,65.57
2018-11-27T17:25:50.274Z,66.40
2018-11-27T17:28:21.849Z,67.39
2018-11-27T17:31:13.067Z,66.03
2018-11-27T17:33:46.923Z,66.15
2018-11-27T17:36:15.453Z,64.46
2018-11-27T17:38:45.533Z,65.73
2018-11-27T17:41:15.579Z,66.10
2018-11-27T17:43:46.654Z,63.83
2018-11-27T17:46:16.290Z,64.06
2018-11-27T17:48:45.794Z,64.45
2018-11-27T17:51:16.068Z,64.78
2018-11-27T17:53:45.414Z,63.98
2018-11-27T17:56:14.464Z,63.50
2018-11-27T17:58:44.946Z,64.34
2018-11-27T18:01:15.515Z,63.37
2018-11-27T18:03:49.134Z,62.97
2018-11-27T18:06:19.282Z,64.37
2018-11-27T18:08:49.771Z,63.94
2018-11-27T18:11:18.585Z,65.50
2018-11-27T18:13:48.435Z,65.14
2018-11-27T18:16:17.642Z,66.87
2018-11-27T18:18:47.073Z,65.21
2018-11-27T18:21:17.682Z,65.04
2018-11-27T18:23:48.864Z,64.31
2018-11-27T18:26:18.287Z,64.03
2018-11-27T18:28:48.277Z,64.68
2018-11-27T18:31:16.787Z,64.90
2018-11-27T18:33:46.016Z,65.04
2018-11-27T18:36:16.780Z,66.84
2018-11-27T18:38:45.954Z,67.19
2018-11-27T18:41:14.597Z,66.15
2018-11-27T18:43:43.154Z,67.29
2018-11-27T18:46:13.126Z,67.10
2018-11-27T18:48:44.770Z,68.06
2018-11-27T18:51:14.246Z,67.43
2018-11-27T18:53:44.381Z,66.60
2018-11-27T18:56:14.182Z,67.10
2018-11-27T18:58:42.717Z,65.67
2018-11-27T19:01:12.117Z,68.37
2018-11-27T19:03:41.597Z,68.20
2018-11-27T19:06:11.255Z,66.34
2018-11-27T19:08:40.987Z,65.39
2018-11-27T19:11:10.733Z,64.79
2018-11-27T19:13:40.053Z,63.71
2018-11-27T19:17:40.075Z,65.57
2018-11-27T19:21:13.040Z,68.07
2018-11-27T19:23:42.606Z,70.38
2018-11-27T19:26:13.144Z,66.85
2018-11-27T19:28:42.346Z,64.73
2018-11-27T19:31:12.483Z,64.58
2018-11-27T19:33:41.529Z,64.46
2018-11-27T19:36:11.373Z,65.42
2018-11-27T19:38:41.627Z,65.68
2018-11-27T19:41:11.047Z,65.78
2018-11-27T19:43:41.560Z,66.68
2018-11-27T19:46:11.121Z,67.64
2018-11-27T19:48:40.699Z,71.44
2018-11-27T19:51:11.809Z,71.94
2018-11-27T19:53:42.061Z,74.08
2018-11-27T19:56:11.429Z,72.19
2018-11-27T19:58:40.045Z,71.54
2018-11-27T20:01:10.554Z,72.83
2018-11-27T20:03:39.182Z,72.47
2018-11-27T20:07:11.415Z,72.56
2018-11-27T20:09:41.746Z,70.16
2018-11-27T20:12:11.835Z,69.57
2018-11-27T20:14:41.269Z,69.73
2018-11-27T20:17:11.651Z,69.93
2018-11-27T20:19:41.723Z,69.72
2018-11-27T20:22:11.706Z,69.35
2018-11-27T20:24:42.145Z,69.19
2018-11-27T20:27:11.604Z,69.27
2018-11-27T20:29:44.346Z,67.64
2018-11-27T20:32:13.714Z,68.34
2018-11-27T20:34:44.057Z,67.21
2018-11-27T20:37:15.078Z,66.60
2018-11-27T20:39:43.962Z,65.33
2018-11-27T20:42:26.498Z,64.48
2018-11-27T20:44:55.454Z,67.66
2018-11-27T20:47:25.066Z,65.11
2018-11-27T20:49:54.371Z,66.08
2018-11-27T20:52:23.350Z,65.15
2018-11-27T20:54:57.502Z,66.16
2018-11-27T20:57:27.531Z,65.63
2018-11-27T20:59:56.202Z,66.43
2018-11-27T21:02:25.572Z,65.83
2018-11-27T21:04:57.410Z,66.94
2018-11-27T21:07:26.911Z,68.30
2018-11-27T21:09:57.730Z,67.75
2018-11-27T21:12:26.931Z,67.14
2018-11-27T21:14:55.790Z,67.10
2018-11-27T21:17:24.923Z,65.32
2018-11-27T21:19:54.942Z,68.36
2018-11-27T21:22:25.818Z,66.88
2018-11-27T21:24:56.009Z,67.74
2018-11-27T21:27:25.355Z,67.80
2018-11-27T21:29:54.618Z,66.82
2018-11-27T21:32:23.474Z,67.45
2018-11-27T21:34:53.209Z,67.15
2018-11-27T21:37:24.383Z,67.94
2018-11-27T21:39:54.620Z,67.22
2018-11-27T21:42:24.030Z,68.12
2018-11-27T21:44:53.491Z,68.16
2018-11-27T21:47:26.130Z,67.35
2018-11-27T21:49:55.381Z,68.53
2018-11-27T21:52:24.712Z,69.68
2018-11-27T21:54:53.895Z,69.70
2018-11-27T21:57:23.807Z,69.78
2018-11-27T21:59:52.971Z,69.93
2018-11-27T22:02:22.024Z,70.13
2018-11-27T22:04:50.545Z,68.88
2018-11-27T22:07:20.081Z,68.95
2018-11-27T22:09:49.789Z,70.87
2018-11-27T22:12:18.775Z,71.77
2018-11-27T22:14:48.195Z,73.08
2018-11-27T22:17:19.790Z,71.78
2018-11-27T22:19:48.299Z,73.21
2018-11-27T22:22:19.066Z,74.63
2018-11-27T22:24:48.415Z,75.48
2018-11-27T22:27:17.994Z,75.42
2018-11-27T22:29:46.866Z,76.09
2018-11-27T22:32:15.878Z,74.61
2018-11-27T22:34:44.870Z,75.10
2018-11-27T22:37:15.032Z,76.15
2018-11-27T22:39:47.427Z,74.55
2018-11-27T22:42:22.899Z,76.03
2018-11-27T22:44:53.305Z,76.37
2018-11-27T22:47:23.725Z,76.04
2018-11-27T22:49:54.774Z,74.47
2018-11-27T22:52:23.283Z,73.74
2018-11-27T22:54:52.687Z,73.05
2018-11-27T22:57:22.822Z,71.91
2018-11-27T22:59:51.319Z,72.29
2018-11-27T23:02:21.406Z,71.52
2018-11-27T23:04:53.940Z,73.22
2018-11-27T23:07:27.639Z,73.61
2018-11-27T23:09:57.066Z,71.26
2018-11-27T23:12:26.182Z,69.13
2018-11-27T23:14:55.837Z,70.05
2018-11-27T23:17:24.938Z,71.26
2018-11-27T23:19:53.842Z,71.26
2018-11-27T23:22:24.904Z,72.35
2018-11-27T23:24:54.615Z,71.42
2018-11-27T23:27:24.264Z,72.07
2018-11-27T23:29:52.998Z,70.32
2018-11-27T23:32:22.242Z,70.86
2018-11-27T23:34:51.103Z,71.46
2018-11-27T23:37:20.421Z,68.94
2018-11-27T23:39:50.878Z,70.85
2018-11-27T23:42:20.466Z,70.12
2018-11-27T23:44:51.649Z,70.84
2018-11-27T23:47:20.672Z,70.04
2018-11-27T23:49:49.731Z,69.60
2018-11-27T23:52:25.559Z,71.05
2018-11-27T23:54:55.796Z,72.60
2018-11-27T23:57:25.651Z,72.55
2018-11-27T23:59:55.951Z,72.63
